sensor_id;sensor_type;location;lat;lon;timestamp;P1;durP1;ratioP1;P2;durP2;ratioP2
29902;SDS011;30288;50.514;9.678;2022-10-29T00:00:25;19.70;;;8.25;;
29902;SDS011;30288;50.514;9.678;2022-10-29T00:02:31;16.08;;;8.10;;
29902;SDS011;30288;50.514;9.678;2022-10-29T00:04:36;15.45;;;7.93;;
29902;SDS011;30288;50.514;9.678;2022-10-29T00:06:41;26.20;;;8.75;;
29902;SDS011;30288;50.514;9.678;2022-10-29T00:08:46;17.00;;;8.43;;
29902;SDS011;30288;50.514;9.678;2022-10-29T00:10:54;29.40;;;8.25;;
29902;SDS011;30288;50.514;9.678;2022-10-29T00:13:08;17.60;;;9.18;;
29902;SDS011;30288;50.514;9.678;2022-10-29T00:15:13;30.63;;;8.77;;
29902;SDS011;30288;50.514;9.678;2022-10-29T00:17:19;22.52;;;7.93;;
29902;SDS011;30288;50.514;9.678;2022-10-29T00:19:24;20.02;;;8.25;;
29902;SDS011;30288;50.514;9.678;2022-10-29T00:21:31;16.25;;;7.60;;
29902;SDS011;30288;50.514;9.678;2022-10-29T00:23:39;19.08;;;7.68;;
29902;SDS011;30288;50.514;9.678;2022-10-29T00:25:44;18.25;;;8.30;;
29902;SDS011;30288;50.514;9.678;2022-10-29T00:27:52;24.90;;;9.00;;
29902;SDS011;30288;50.514;9.678;2022-10-29T00:29:59;21.00;;;8.48;;
29902;SDS011;30288;50.514;9.678;2022-10-29T00:32:04;26.83;;;8.70;;
29902;SDS011;30288;50.514;9.678;2022-10-29T00:34:10;17.33;;;7.28;;
29902;SDS011;30288;50.514;9.678;2022-10-29T00:36:16;22.48;;;9.60;;
29902;SDS011;30288;50.514;9.678;2022-10-29T00:38:24;20.27;;;8.68;;
29902;SDS011;30288;50.514;9.678;2022-10-29T00:40:29;24.50;;;9.23;;
29902;SDS011;30288;50.514;9.678;2022-10-29T00:42:40;19.10;;;9.40;;
29902;SDS011;30288;50.514;9.678;2022-10-29T00:44:47;16.90;;;7.57;;
29902;SDS011;30288;50.514;9.678;2022-10-29T00:46:54;17.17;;;7.53;;
29902;SDS011;30288;50.514;9.678;2022-10-29T00:49:06;19.67;;;8.60;;
29902;SDS011;30288;50.514;9.678;2022-10-29T00:51:12;15.85;;;8.07;;
29902;SDS011;30288;50.514;9.678;2022-10-29T00:53:19;16.42;;;6.88;;
29902;SDS011;30288;50.514;9.678;2022-10-29T00:55:29;18.48;;;7.22;;
29902;SDS011;30288;50.514;9.678;2022-10-29T00:57:36;21.00;;;7.65;;
29902;SDS011;30288;50.514;9.678;2022-10-29T00:59:44;18.58;;;7.78;;
29902;SDS011;30288;50.514;9.678;2022-10-29T01:01:53;21.35;;;7.43;;
29902;SDS011;30288;50.514;9.678;2022-10-29T01:03:59;20.75;;;8.43;;
29902;SDS011;30288;50.514;9.678;2022-10-29T01:06:05;22.98;;;9.68;;
29902;SDS011;30288;50.514;9.678;2022-10-29T01:08:11;15.75;;;7.88;;
29902;SDS011;30288;50.514;9.678;2022-10-29T01:10:18;23.15;;;8.05;;
29902;SDS011;30288;50.514;9.678;2022-10-29T01:12:42;24.88;;;9.75;;
29902;SDS011;30288;50.514;9.678;2022-10-29T01:15:15;95.63;;;11.05;;
29902;SDS011;30288;50.514;9.678;2022-10-29T01:17:32;13.88;;;6.50;;
29902;SDS011;30288;50.514;9.678;2022-10-29T01:19:54;16.42;;;6.07;;
29902;SDS011;30288;50.514;9.678;2022-10-29T01:22:30;18.77;;;7.50;;
29902;SDS011;30288;50.514;9.678;2022-10-29T01:24:45;22.52;;;8.30;;
29902;SDS011;30288;50.514;9.678;2022-10-29T01:27:12;12.93;;;6.47;;
29902;SDS011;30288;50.514;9.678;2022-10-29T01:30:05;19.67;;;7.60;;
29902;SDS011;30288;50.514;9.678;2022-10-29T01:32:26;15.25;;;7.25;;
29902;SDS011;30288;50.514;9.678;2022-10-29T01:34:39;17.20;;;8.23;;
29902;SDS011;30288;50.514;9.678;2022-10-29T01:36:53;21.58;;;8.57;;
29902;SDS011;30288;50.514;9.678;2022-10-29T01:39:04;25.33;;;9.18;;
29902;SDS011;30288;50.514;9.678;2022-10-29T01:41:20;17.95;;;7.85;;
29902;SDS011;30288;50.514;9.678;2022-10-29T01:43:34;30.02;;;9.00;;
29902;SDS011;30288;50.514;9.678;2022-10-29T01:45:45;23.92;;;9.57;;
29902;SDS011;30288;50.514;9.678;2022-10-29T01:47:57;20.55;;;9.43;;
29902;SDS011;30288;50.514;9.678;2022-10-29T01:50:09;22.38;;;8.50;;
29902;SDS011;30288;50.514;9.678;2022-10-29T01:52:19;16.13;;;7.97;;
29902;SDS011;30288;50.514;9.678;2022-10-29T01:54:26;19.48;;;9.13;;
29902;SDS011;30288;50.514;9.678;2022-10-29T01:56:31;18.80;;;7.72;;
29902;SDS011;30288;50.514;9.678;2022-10-29T01:58:37;16.08;;;8.07;;
29902;SDS011;30288;50.514;9.678;2022-10-29T02:00:45;21.55;;;8.93;;
29902;SDS011;30288;50.514;9.678;2022-10-29T02:03:11;21.70;;;10.50;;
29902;SDS011;30288;50.514;9.678;2022-10-29T02:05:31;19.73;;;8.90;;
29902;SDS011;30288;50.514;9.678;2022-10-29T02:07:42;18.15;;;8.77;;
29902;SDS011;30288;50.514;9.678;2022-10-29T02:09:54;21.67;;;9.75;;
29902;SDS011;30288;50.514;9.678;2022-10-29T02:12:07;15.38;;;8.95;;
29902;SDS011;30288;50.514;9.678;2022-10-29T02:14:21;20.00;;;8.25;;
29902;SDS011;30288;50.514;9.678;2022-10-29T02:16:31;21.92;;;8.63;;
29902;SDS011;30288;50.514;9.678;2022-10-29T02:18:44;28.60;;;9.25;;
29902;SDS011;30288;50.514;9.678;2022-10-29T02:20:51;16.17;;;7.85;;
29902;SDS011;30288;50.514;9.678;2022-10-29T02:22:56;22.10;;;8.90;;
29902;SDS011;30288;50.514;9.678;2022-10-29T02:25:02;21.50;;;9.00;;
29902;SDS011;30288;50.514;9.678;2022-10-29T02:27:09;20.85;;;10.20;;
29902;SDS011;30288;50.514;9.678;2022-10-29T02:29:14;18.42;;;8.38;;
29902;SDS011;30288;50.514;9.678;2022-10-29T02:31:19;18.33;;;8.35;;
29902;SDS011;30288;50.514;9.678;2022-10-29T02:33:24;93.28;;;9.13;;
29902;SDS011;30288;50.514;9.678;2022-10-29T02:35:32;23.40;;;7.30;;
29902;SDS011;30288;50.514;9.678;2022-10-29T02:37:37;17.55;;;7.68;;
29902;SDS011;30288;50.514;9.678;2022-10-29T02:39:42;14.65;;;8.27;;
29902;SDS011;30288;50.514;9.678;2022-10-29T02:41:47;23.88;;;10.65;;
29902;SDS011;30288;50.514;9.678;2022-10-29T02:43:52;21.92;;;10.25;;
29902;SDS011;30288;50.514;9.678;2022-10-29T02:48:23;24.75;;;10.60;;
29902;SDS011;30288;50.514;9.678;2022-10-29T02:50:28;23.50;;;10.80;;
29902;SDS011;30288;50.514;9.678;2022-10-29T02:52:38;23.48;;;9.57;;
29902;SDS011;30288;50.514;9.678;2022-10-29T02:54:44;24.10;;;10.18;;
29902;SDS011;30288;50.514;9.678;2022-10-29T02:56:49;23.63;;;9.63;;
29902;SDS011;30288;50.514;9.678;2022-10-29T02:58:52;14.50;;;7.30;;
29902;SDS011;30288;50.514;9.678;2022-10-29T03:00:57;16.50;;;7.20;;
29902;SDS011;30288;50.514;9.678;2022-10-29T03:03:02;14.57;;;7.13;;
29902;SDS011;30288;50.514;9.678;2022-10-29T03:05:08;23.67;;;8.23;;
29902;SDS011;30288;50.514;9.678;2022-10-29T03:07:16;16.52;;;9.38;;
29902;SDS011;30288;50.514;9.678;2022-10-29T03:09:21;19.65;;;8.43;;
29902;SDS011;30288;50.514;9.678;2022-10-29T03:11:27;38.50;;;8.68;;
29902;SDS011;30288;50.514;9.678;2022-10-29T03:13:31;181.35;;;13.30;;
29902;SDS011;30288;50.514;9.678;2022-10-29T03:15:57;48.63;;;9.50;;
29902;SDS011;30288;50.514;9.678;2022-10-29T03:18:02;23.02;;;10.25;;
29902;SDS011;30288;50.514;9.678;2022-10-29T03:20:08;26.63;;;12.30;;
29902;SDS011;30288;50.514;9.678;2022-10-29T03:22:16;22.17;;;10.73;;
29902;SDS011;30288;50.514;9.678;2022-10-29T03:24:21;21.20;;;9.93;;
29902;SDS011;30288;50.514;9.678;2022-10-29T03:26:26;21.17;;;9.60;;
29902;SDS011;30288;50.514;9.678;2022-10-29T03:28:31;19.35;;;9.40;;
29902;SDS011;30288;50.514;9.678;2022-10-29T03:30:36;25.95;;;9.02;;
29902;SDS011;30288;50.514;9.678;2022-10-29T03:32:42;52.15;;;10.18;;
29902;SDS011;30288;50.514;9.678;2022-10-29T03:34:50;23.55;;;8.25;;
29902;SDS011;30288;50.514;9.678;2022-10-29T03:37:00;20.05;;;8.40;;
29902;SDS011;30288;50.514;9.678;2022-10-29T03:39:08;21.52;;;9.35;;
29902;SDS011;30288;50.514;9.678;2022-10-29T03:41:13;20.40;;;8.90;;
29902;SDS011;30288;50.514;9.678;2022-10-29T03:43:18;24.13;;;7.38;;
29902;SDS011;30288;50.514;9.678;2022-10-29T03:45:24;24.02;;;9.43;;
29902;SDS011;30288;50.514;9.678;2022-10-29T03:47:31;29.30;;;10.18;;
29902;SDS011;30288;50.514;9.678;2022-10-29T03:49:36;20.70;;;8.48;;
29902;SDS011;30288;50.514;9.678;2022-10-29T03:51:42;22.50;;;9.30;;
29902;SDS011;30288;50.514;9.678;2022-10-29T03:53:47;24.30;;;10.82;;
29902;SDS011;30288;50.514;9.678;2022-10-29T03:55:55;36.25;;;14.23;;
29902;SDS011;30288;50.514;9.678;2022-10-29T03:58:01;29.20;;;13.13;;
29902;SDS011;30288;50.514;9.678;2022-10-29T04:00:06;29.55;;;13.38;;
29902;SDS011;30288;50.514;9.678;2022-10-29T04:02:13;38.70;;;17.05;;
29902;SDS011;30288;50.514;9.678;2022-10-29T04:04:18;55.65;;;21.25;;
29902;SDS011;30288;50.514;9.678;2022-10-29T04:06:23;52.35;;;23.55;;
29902;SDS011;30288;50.514;9.678;2022-10-29T04:08:28;51.15;;;23.27;;
29902;SDS011;30288;50.514;9.678;2022-10-29T04:10:34;58.55;;;24.50;;
29902;SDS011;30288;50.514;9.678;2022-10-29T04:12:46;55.88;;;24.23;;
29902;SDS011;30288;50.514;9.678;2022-10-29T04:14:51;58.03;;;24.40;;
29902;SDS011;30288;50.514;9.678;2022-10-29T04:16:57;52.88;;;23.65;;
29902;SDS011;30288;50.514;9.678;2022-10-29T04:19:03;57.97;;;25.70;;
29902;SDS011;30288;50.514;9.678;2022-10-29T04:21:08;55.35;;;24.35;;
29902;SDS011;30288;50.514;9.678;2022-10-29T04:23:34;49.42;;;22.60;;
29902;SDS011;30288;50.514;9.678;2022-10-29T04:25:59;55.85;;;23.20;;
29902;SDS011;30288;50.514;9.678;2022-10-29T04:28:27;43.67;;;21.17;;
29902;SDS011;30288;50.514;9.678;2022-10-29T04:30:48;45.28;;;20.00;;
29902;SDS011;30288;50.514;9.678;2022-10-29T04:32:56;42.80;;;19.45;;
29902;SDS011;30288;50.514;9.678;2022-10-29T04:35:03;48.30;;;19.83;;
29902;SDS011;30288;50.514;9.678;2022-10-29T04:37:10;43.67;;;19.17;;
29902;SDS011;30288;50.514;9.678;2022-10-29T04:39:16;44.08;;;18.20;;
29902;SDS011;30288;50.514;9.678;2022-10-29T04:41:23;34.20;;;17.48;;
29902;SDS011;30288;50.514;9.678;2022-10-29T04:43:31;38.33;;;17.23;;
29902;SDS011;30288;50.514;9.678;2022-10-29T04:45:36;34.22;;;16.73;;
29902;SDS011;30288;50.514;9.678;2022-10-29T04:47:41;42.08;;;18.02;;
29902;SDS011;30288;50.514;9.678;2022-10-29T04:49:46;37.90;;;20.45;;
29902;SDS011;30288;50.514;9.678;2022-10-29T04:51:51;47.17;;;21.02;;
29902;SDS011;30288;50.514;9.678;2022-10-29T04:53:56;42.15;;;18.65;;
29902;SDS011;30288;50.514;9.678;2022-10-29T04:56:01;40.72;;;19.85;;
29902;SDS011;30288;50.514;9.678;2022-10-29T04:58:11;44.25;;;18.13;;
29902;SDS011;30288;50.514;9.678;2022-10-29T05:00:21;42.20;;;19.05;;
29902;SDS011;30288;50.514;9.678;2022-10-29T05:02:27;34.83;;;17.35;;
29902;SDS011;30288;50.514;9.678;2022-10-29T05:04:32;37.03;;;17.63;;
29902;SDS011;30288;50.514;9.678;2022-10-29T05:06:38;43.33;;;18.45;;
29902;SDS011;30288;50.514;9.678;2022-10-29T05:08:44;48.00;;;16.92;;
29902;SDS011;30288;50.514;9.678;2022-10-29T05:10:49;37.40;;;16.17;;
29902;SDS011;30288;50.514;9.678;2022-10-29T05:12:55;34.95;;;16.55;;
29902;SDS011;30288;50.514;9.678;2022-10-29T05:15:01;34.15;;;16.58;;
29902;SDS011;30288;50.514;9.678;2022-10-29T05:17:10;112.45;;;18.27;;
29902;SDS011;30288;50.514;9.678;2022-10-29T05:19:15;33.55;;;16.58;;
29902;SDS011;30288;50.514;9.678;2022-10-29T05:21:21;35.63;;;15.98;;
29902;SDS011;30288;50.514;9.678;2022-10-29T05:23:26;34.90;;;15.90;;
29902;SDS011;30288;50.514;9.678;2022-10-29T05:25:32;33.85;;;15.65;;
29902;SDS011;30288;50.514;9.678;2022-10-29T05:27:41;33.15;;;13.90;;
29902;SDS011;30288;50.514;9.678;2022-10-29T05:29:46;30.98;;;15.20;;
29902;SDS011;30288;50.514;9.678;2022-10-29T05:31:51;34.05;;;15.63;;
29902;SDS011;30288;50.514;9.678;2022-10-29T05:34:00;35.28;;;15.65;;
29902;SDS011;30288;50.514;9.678;2022-10-29T05:36:05;31.90;;;15.52;;
29902;SDS011;30288;50.514;9.678;2022-10-29T05:38:11;35.33;;;17.55;;
29902;SDS011;30288;50.514;9.678;2022-10-29T05:40:18;36.28;;;15.82;;
29902;SDS011;30288;50.514;9.678;2022-10-29T05:42:24;28.75;;;14.68;;
29902;SDS011;30288;50.514;9.678;2022-10-29T05:44:29;35.30;;;15.23;;
29902;SDS011;30288;50.514;9.678;2022-10-29T05:46:34;35.10;;;16.30;;
29902;SDS011;30288;50.514;9.678;2022-10-29T05:48:39;34.63;;;15.98;;
29902;SDS011;30288;50.514;9.678;2022-10-29T05:50:46;34.08;;;15.05;;
29902;SDS011;30288;50.514;9.678;2022-10-29T05:52:55;33.55;;;16.08;;
29902;SDS011;30288;50.514;9.678;2022-10-29T05:55:01;38.28;;;16.63;;
29902;SDS011;30288;50.514;9.678;2022-10-29T05:57:06;34.08;;;15.90;;
29902;SDS011;30288;50.514;9.678;2022-10-29T05:59:11;32.17;;;16.95;;
29902;SDS011;30288;50.514;9.678;2022-10-29T06:01:16;34.13;;;16.27;;
29902;SDS011;30288;50.514;9.678;2022-10-29T06:03:22;32.65;;;15.75;;
29902;SDS011;30288;50.514;9.678;2022-10-29T06:05:27;31.67;;;15.82;;
29902;SDS011;30288;50.514;9.678;2022-10-29T06:07:34;32.47;;;16.08;;
29902;SDS011;30288;50.514;9.678;2022-10-29T06:09:40;29.25;;;14.88;;
29902;SDS011;30288;50.514;9.678;2022-10-29T06:11:45;27.20;;;15.10;;
29902;SDS011;30288;50.514;9.678;2022-10-29T06:13:53;29.48;;;15.77;;
29902;SDS011;30288;50.514;9.678;2022-10-29T06:15:58;30.23;;;15.05;;
29902;SDS011;30288;50.514;9.678;2022-10-29T06:18:04;31.95;;;15.43;;
29902;SDS011;30288;50.514;9.678;2022-10-29T06:20:10;27.45;;;14.27;;
29902;SDS011;30288;50.514;9.678;2022-10-29T06:22:16;30.70;;;14.15;;
29902;SDS011;30288;50.514;9.678;2022-10-29T06:24:25;31.17;;;15.45;;
29902;SDS011;30288;50.514;9.678;2022-10-29T06:26:30;30.20;;;14.50;;
29902;SDS011;30288;50.514;9.678;2022-10-29T06:28:37;29.05;;;15.48;;
29902;SDS011;30288;50.514;9.678;2022-10-29T06:44:48;31.98;;;15.50;;
29902;SDS011;30288;50.514;9.678;2022-10-29T06:46:53;32.17;;;15.60;;
29902;SDS011;30288;50.514;9.678;2022-10-29T06:48:59;27.95;;;15.77;;
29902;SDS011;30288;50.514;9.678;2022-10-29T06:51:04;29.60;;;16.08;;
29902;SDS011;30288;50.514;9.678;2022-10-29T06:53:10;33.78;;;16.17;;
29902;SDS011;30288;50.514;9.678;2022-10-29T06:55:17;32.08;;;17.13;;
29902;SDS011;30288;50.514;9.678;2022-10-29T06:57:22;38.33;;;16.92;;
29902;SDS011;30288;50.514;9.678;2022-10-29T06:59:27;38.80;;;17.13;;
29902;SDS011;30288;50.514;9.678;2022-10-29T07:01:35;37.50;;;16.50;;
29902;SDS011;30288;50.514;9.678;2022-10-29T07:03:40;32.03;;;16.15;;
29902;SDS011;30288;50.514;9.678;2022-10-29T07:05:46;34.83;;;16.38;;
29902;SDS011;30288;50.514;9.678;2022-10-29T07:07:58;33.17;;;15.65;;
29902;SDS011;30288;50.514;9.678;2022-10-29T07:10:04;36.00;;;15.88;;
29902;SDS011;30288;50.514;9.678;2022-10-29T07:12:10;34.58;;;16.42;;
29902;SDS011;30288;50.514;9.678;2022-10-29T07:14:15;35.40;;;14.95;;
29902;SDS011;30288;50.514;9.678;2022-10-29T07:16:20;24.00;;;14.48;;
29902;SDS011;30288;50.514;9.678;2022-10-29T07:18:30;23.90;;;14.25;;
29902;SDS011;30288;50.514;9.678;2022-10-29T07:20:36;33.35;;;15.13;;
29902;SDS011;30288;50.514;9.678;2022-10-29T07:22:45;34.92;;;14.88;;
29902;SDS011;30288;50.514;9.678;2022-10-29T07:24:52;29.00;;;14.05;;
29902;SDS011;30288;50.514;9.678;2022-10-29T07:27:01;35.47;;;14.50;;
29902;SDS011;30288;50.514;9.678;2022-10-29T07:29:07;26.77;;;13.52;;
29902;SDS011;30288;50.514;9.678;2022-10-29T07:31:12;25.50;;;14.35;;
29902;SDS011;30288;50.514;9.678;2022-10-29T07:33:19;28.88;;;13.23;;
29902;SDS011;30288;50.514;9.678;2022-10-29T07:35:26;27.23;;;13.98;;
29902;SDS011;30288;50.514;9.678;2022-10-29T07:37:33;25.15;;;14.38;;
29902;SDS011;30288;50.514;9.678;2022-10-29T07:39:38;27.17;;;13.32;;
29902;SDS011;30288;50.514;9.678;2022-10-29T07:41:44;35.50;;;14.07;;
29902;SDS011;30288;50.514;9.678;2022-10-29T07:43:49;32.42;;;12.77;;
29902;SDS011;30288;50.514;9.678;2022-10-29T07:45:54;33.85;;;14.02;;
29902;SDS011;30288;50.514;9.678;2022-10-29T07:47:59;28.40;;;13.68;;
29902;SDS011;30288;50.514;9.678;2022-10-29T07:50:08;24.10;;;13.07;;
29902;SDS011;30288;50.514;9.678;2022-10-29T07:52:16;30.38;;;12.82;;
29902;SDS011;30288;50.514;9.678;2022-10-29T07:54:21;26.80;;;12.55;;
29902;SDS011;30288;50.514;9.678;2022-10-29T07:56:26;27.05;;;12.30;;
29902;SDS011;30288;50.514;9.678;2022-10-29T07:58:31;26.83;;;13.18;;
29902;SDS011;30288;50.514;9.678;2022-10-29T08:00:37;22.70;;;12.00;;
29902;SDS011;30288;50.514;9.678;2022-10-29T08:02:49;26.25;;;12.40;;
29902;SDS011;30288;50.514;9.678;2022-10-29T08:04:56;29.70;;;13.27;;
29902;SDS011;30288;50.514;9.678;2022-10-29T08:07:01;26.63;;;11.55;;
29902;SDS011;30288;50.514;9.678;2022-10-29T08:09:09;26.42;;;12.00;;
29902;SDS011;30288;50.514;9.678;2022-10-29T08:11:14;29.67;;;11.45;;
29902;SDS011;30288;50.514;9.678;2022-10-29T08:13:19;27.45;;;11.35;;
29902;SDS011;30288;50.514;9.678;2022-10-29T08:15:25;27.27;;;13.38;;
29902;SDS011;30288;50.514;9.678;2022-10-29T08:17:32;21.88;;;11.82;;
29902;SDS011;30288;50.514;9.678;2022-10-29T08:19:37;24.25;;;9.65;;
29902;SDS011;30288;50.514;9.678;2022-10-29T08:21:43;27.05;;;11.38;;
29902;SDS011;30288;50.514;9.678;2022-10-29T08:23:48;23.17;;;11.60;;
29902;SDS011;30288;50.514;9.678;2022-10-29T08:25:55;21.50;;;9.85;;
29902;SDS011;30288;50.514;9.678;2022-10-29T08:28:01;24.52;;;11.63;;
29902;SDS011;30288;50.514;9.678;2022-10-29T08:30:09;20.52;;;11.07;;
29902;SDS011;30288;50.514;9.678;2022-10-29T08:32:16;20.95;;;11.77;;
29902;SDS011;30288;50.514;9.678;2022-10-29T08:34:21;18.10;;;10.30;;
29902;SDS011;30288;50.514;9.678;2022-10-29T08:36:26;18.38;;;10.88;;
29902;SDS011;30288;50.514;9.678;2022-10-29T08:38:31;26.25;;;10.90;;
29902;SDS011;30288;50.514;9.678;2022-10-29T08:40:38;20.38;;;9.88;;
29902;SDS011;30288;50.514;9.678;2022-10-29T08:43:09;23.60;;;10.85;;
29902;SDS011;30288;50.514;9.678;2022-10-29T08:45:48;21.80;;;9.88;;
29902;SDS011;30288;50.514;9.678;2022-10-29T08:48:02;24.08;;;11.23;;
29902;SDS011;30288;50.514;9.678;2022-10-29T08:50:26;23.42;;;10.55;;
29902;SDS011;30288;50.514;9.678;2022-10-29T08:52:34;22.98;;;9.82;;
29902;SDS011;30288;50.514;9.678;2022-10-29T08:55:05;22.75;;;9.30;;
29902;SDS011;30288;50.514;9.678;2022-10-29T08:57:17;18.80;;;9.00;;
29902;SDS011;30288;50.514;9.678;2022-10-29T08:59:28;24.25;;;8.60;;
29902;SDS011;30288;50.514;9.678;2022-10-29T09:01:39;28.35;;;8.80;;
29902;SDS011;30288;50.514;9.678;2022-10-29T09:03:45;19.52;;;8.43;;
29902;SDS011;30288;50.514;9.678;2022-10-29T09:05:52;25.05;;;8.70;;
29902;SDS011;30288;50.514;9.678;2022-10-29T09:08:14;17.30;;;8.10;;
29902;SDS011;30288;50.514;9.678;2022-10-29T09:10:35;27.75;;;8.73;;
29902;SDS011;30288;50.514;9.678;2022-10-29T09:12:52;17.83;;;8.32;;
29902;SDS011;30288;50.514;9.678;2022-10-29T09:15:17;21.85;;;8.15;;
29902;SDS011;30288;50.514;9.678;2022-10-29T09:18:03;20.27;;;8.25;;
29902;SDS011;30288;50.514;9.678;2022-10-29T09:20:22;28.60;;;8.18;;
29902;SDS011;30288;50.514;9.678;2022-10-29T09:22:51;14.32;;;8.00;;
29902;SDS011;30288;50.514;9.678;2022-10-29T09:25:10;22.67;;;7.95;;
29902;SDS011;30288;50.514;9.678;2022-10-29T09:27:22;19.23;;;7.72;;
29902;SDS011;30288;50.514;9.678;2022-10-29T09:29:36;24.40;;;8.02;;
29902;SDS011;30288;50.514;9.678;2022-10-29T09:31:58;19.77;;;7.63;;
29902;SDS011;30288;50.514;9.678;2022-10-29T09:34:09;24.88;;;7.95;;
29902;SDS011;30288;50.514;9.678;2022-10-29T09:36:20;20.23;;;7.30;;
29902;SDS011;30288;50.514;9.678;2022-10-29T09:38:28;24.88;;;7.90;;
29902;SDS011;30288;50.514;9.678;2022-10-29T09:40:37;25.20;;;7.28;;
29902;SDS011;30288;50.514;9.678;2022-10-29T09:42:45;19.92;;;7.82;;
29902;SDS011;30288;50.514;9.678;2022-10-29T09:44:51;18.50;;;7.78;;
29902;SDS011;30288;50.514;9.678;2022-10-29T09:47:05;20.55;;;7.43;;
29902;SDS011;30288;50.514;9.678;2022-10-29T09:49:23;24.30;;;7.07;;
29902;SDS011;30288;50.514;9.678;2022-10-29T09:51:45;18.58;;;7.05;;
29902;SDS011;30288;50.514;9.678;2022-10-29T09:53:57;15.60;;;6.47;;
29902;SDS011;30288;50.514;9.678;2022-10-29T09:56:04;15.18;;;6.53;;
29902;SDS011;30288;50.514;9.678;2022-10-29T09:58:14;20.10;;;6.30;;
29902;SDS011;30288;50.514;9.678;2022-10-29T10:00:25;18.90;;;6.00;;
29902;SDS011;30288;50.514;9.678;2022-10-29T10:02:37;16.85;;;6.47;;
29902;SDS011;30288;50.514;9.678;2022-10-29T10:04:46;16.13;;;6.53;;
29902;SDS011;30288;50.514;9.678;2022-10-29T10:07:00;15.50;;;6.65;;
29902;SDS011;30288;50.514;9.678;2022-10-29T10:09:09;27.13;;;6.65;;
29902;SDS011;30288;50.514;9.678;2022-10-29T10:11:17;20.25;;;6.43;;
29902;SDS011;30288;50.514;9.678;2022-10-29T10:13:23;19.42;;;6.63;;
29902;SDS011;30288;50.514;9.678;2022-10-29T10:15:31;16.88;;;6.80;;
29902;SDS011;30288;50.514;9.678;2022-10-29T10:20:13;20.10;;;7.03;;
29902;SDS011;30288;50.514;9.678;2022-10-29T10:22:32;20.63;;;6.70;;
29902;SDS011;30288;50.514;9.678;2022-10-29T10:24:37;19.75;;;6.75;;
29902;SDS011;30288;50.514;9.678;2022-10-29T10:26:43;19.10;;;6.25;;
29902;SDS011;30288;50.514;9.678;2022-10-29T10:28:53;15.23;;;6.53;;
29902;SDS011;30288;50.514;9.678;2022-10-29T10:31:15;16.27;;;6.50;;
29902;SDS011;30288;50.514;9.678;2022-10-29T10:33:25;20.30;;;6.50;;
29902;SDS011;30288;50.514;9.678;2022-10-29T10:35:30;16.95;;;5.60;;
29902;SDS011;30288;50.514;9.678;2022-10-29T10:37:38;17.25;;;6.18;;
29902;SDS011;30288;50.514;9.678;2022-10-29T10:39:43;17.67;;;5.65;;
29902;SDS011;30288;50.514;9.678;2022-10-29T10:41:53;14.82;;;5.70;;
29902;SDS011;30288;50.514;9.678;2022-10-29T10:44:09;17.50;;;6.47;;
29902;SDS011;30288;50.514;9.678;2022-10-29T10:46:17;17.00;;;5.63;;
29902;SDS011;30288;50.514;9.678;2022-10-29T10:48:30;21.85;;;6.05;;
29902;SDS011;30288;50.514;9.678;2022-10-29T10:51:09;16.40;;;6.25;;
29902;SDS011;30288;50.514;9.678;2022-10-29T10:53:23;17.10;;;6.70;;
29902;SDS011;30288;50.514;9.678;2022-10-29T10:55:30;14.48;;;6.45;;
29902;SDS011;30288;50.514;9.678;2022-10-29T10:57:39;20.13;;;6.15;;
29902;SDS011;30288;50.514;9.678;2022-10-29T10:59:56;21.15;;;6.40;;
29902;SDS011;30288;50.514;9.678;2022-10-29T11:02:07;16.05;;;6.55;;
29902;SDS011;30288;50.514;9.678;2022-10-29T11:04:30;21.98;;;6.63;;
29902;SDS011;30288;50.514;9.678;2022-10-29T11:06:40;20.17;;;6.00;;
29902;SDS011;30288;50.514;9.678;2022-10-29T11:08:52;20.25;;;5.68;;
29902;SDS011;30288;50.514;9.678;2022-10-29T11:11:03;17.88;;;5.65;;
29902;SDS011;30288;50.514;9.678;2022-10-29T11:13:14;17.63;;;6.32;;
29902;SDS011;30288;50.514;9.678;2022-10-29T11:15:26;21.00;;;6.60;;
29902;SDS011;30288;50.514;9.678;2022-10-29T11:17:40;14.75;;;5.95;;
29902;SDS011;30288;50.514;9.678;2022-10-29T11:19:57;20.67;;;6.72;;
29902;SDS011;30288;50.514;9.678;2022-10-29T11:22:10;24.10;;;6.22;;
29902;SDS011;30288;50.514;9.678;2022-10-29T11:24:24;16.60;;;5.75;;
29902;SDS011;30288;50.514;9.678;2022-10-29T11:26:38;21.38;;;6.80;;
29902;SDS011;30288;50.514;9.678;2022-10-29T11:28:50;17.33;;;5.53;;
29902;SDS011;30288;50.514;9.678;2022-10-29T11:31:01;14.20;;;5.97;;
29902;SDS011;30288;50.514;9.678;2022-10-29T11:33:16;13.02;;;5.53;;
29902;SDS011;30288;50.514;9.678;2022-10-29T11:35:31;16.65;;;5.75;;
29902;SDS011;30288;50.514;9.678;2022-10-29T11:37:46;19.10;;;5.35;;
29902;SDS011;30288;50.514;9.678;2022-10-29T11:40:01;17.38;;;5.05;;
29902;SDS011;30288;50.514;9.678;2022-10-29T11:42:14;14.27;;;5.47;;
29902;SDS011;30288;50.514;9.678;2022-10-29T11:44:19;17.50;;;4.90;;
29902;SDS011;30288;50.514;9.678;2022-10-29T11:46:27;17.20;;;5.28;;
29902;SDS011;30288;50.514;9.678;2022-10-29T11:48:45;13.70;;;5.18;;
29902;SDS011;30288;50.514;9.678;2022-10-29T11:51:01;15.23;;;5.32;;
29902;SDS011;30288;50.514;9.678;2022-10-29T11:53:18;16.85;;;5.40;;
29902;SDS011;30288;50.514;9.678;2022-10-29T11:55:37;16.50;;;5.32;;
29902;SDS011;30288;50.514;9.678;2022-10-29T11:57:50;19.58;;;5.40;;
29902;SDS011;30288;50.514;9.678;2022-10-29T12:00:04;23.50;;;5.60;;
29902;SDS011;30288;50.514;9.678;2022-10-29T12:02:22;16.35;;;5.55;;
29902;SDS011;30288;50.514;9.678;2022-10-29T12:04:41;19.95;;;5.40;;
29902;SDS011;30288;50.514;9.678;2022-10-29T12:07:03;14.32;;;5.13;;
29902;SDS011;30288;50.514;9.678;2022-10-29T12:09:38;15.80;;;5.40;;
29902;SDS011;30288;50.514;9.678;2022-10-29T12:12:23;16.52;;;4.78;;
29902;SDS011;30288;50.514;9.678;2022-10-29T12:14:38;13.95;;;4.75;;
29902;SDS011;30288;50.514;9.678;2022-10-29T12:16:50;11.38;;;4.45;;
29902;SDS011;30288;50.514;9.678;2022-10-29T12:19:06;14.55;;;5.13;;
29902;SDS011;30288;50.514;9.678;2022-10-29T12:21:27;20.48;;;5.60;;
29902;SDS011;30288;50.514;9.678;2022-10-29T12:23:47;14.98;;;4.88;;
29902;SDS011;30288;50.514;9.678;2022-10-29T12:26:02;29.15;;;5.20;;
29902;SDS011;30288;50.514;9.678;2022-10-29T12:28:15;16.95;;;4.82;;
29902;SDS011;30288;50.514;9.678;2022-10-29T12:30:28;16.90;;;4.93;;
29902;SDS011;30288;50.514;9.678;2022-10-29T12:34:57;14.85;;;4.72;;
29902;SDS011;30288;50.514;9.678;2022-10-29T12:37:08;18.98;;;5.18;;
29902;SDS011;30288;50.514;9.678;2022-10-29T12:39:25;16.67;;;5.00;;
29902;SDS011;30288;50.514;9.678;2022-10-29T12:41:34;15.52;;;4.57;;
29902;SDS011;30288;50.514;9.678;2022-10-29T12:43:44;16.38;;;5.47;;
29902;SDS011;30288;50.514;9.678;2022-10-29T12:45:52;15.02;;;4.78;;
29902;SDS011;30288;50.514;9.678;2022-10-29T12:48:25;14.35;;;5.05;;
29902;SDS011;30288;50.514;9.678;2022-10-29T12:50:43;14.55;;;5.13;;
29902;SDS011;30288;50.514;9.678;2022-10-29T12:53:01;16.50;;;5.50;;
29902;SDS011;30288;50.514;9.678;2022-10-29T12:55:21;17.30;;;5.15;;
29902;SDS011;30288;50.514;9.678;2022-10-29T12:57:28;17.15;;;4.93;;
29902;SDS011;30288;50.514;9.678;2022-10-29T12:59:36;18.70;;;6.18;;
29902;SDS011;30288;50.514;9.678;2022-10-29T13:01:44;17.33;;;5.28;;
29902;SDS011;30288;50.514;9.678;2022-10-29T13:06:44;13.93;;;5.32;;
29902;SDS011;30288;50.514;9.678;2022-10-29T13:08:59;18.30;;;5.53;;
29902;SDS011;30288;50.514;9.678;2022-10-29T13:11:23;15.18;;;5.70;;